Flight NumberIRA7035 Date13.02.2018
Departure AirportOIIE Arrival AirportOTHH
Departure Time6.02Arrival Time7.48
Pilot In CommandMohammad HajiAmini Block Time1.80 Hours
Pilot Rating95 % AircraftEP-IBZ [ 777-300ER ]


Distance610.00 Nm. Passengers550
Fuel Used12,237 Kg. Cargo13753 Kg
Expense Details Income Details
Fuel Cost13,444 v$Ticket Sales118,800 v$
Pilot Salary22,000 v$ Cargo income22,766.00 v$
Crew Salary2,750 v$ Bonus24,445 v$
Gross Profit124,671 v$ ( 3,116,775 v$ )

Client Versionv2.2.0.rc3 Max Simrate1
Flight Critique Pilot CommentsOTBD 132000Z 12013KT CAVOK 22/16 Q1013 NOSIG